sensor_id;sensor_type;location;lat;lon;timestamp;P1;durP1;ratioP1;P2;durP2;ratioP2
77012;SDS011;67260;53.130;17.982;2023-03-01T00:00:00;73.80;;;21.90;;
77012;SDS011;67260;53.130;17.982;2023-03-01T00:02:27;55.10;;;20.50;;
77012;SDS011;67260;53.130;17.982;2023-03-01T00:04:54;61.90;;;20.80;;
77012;SDS011;67260;53.130;17.982;2023-03-01T00:07:21;82.10;;;27.10;;
77012;SDS011;67260;53.130;17.982;2023-03-01T00:09:47;81.70;;;28.80;;
77012;SDS011;67260;53.130;17.982;2023-03-01T00:12:14;81.40;;;26.90;;
77012;SDS011;67260;53.130;17.982;2023-03-01T00:17:07;61.10;;;20.90;;
77012;SDS011;67260;53.130;17.982;2023-03-01T00:19:34;66.00;;;21.50;;
77012;SDS011;67260;53.130;17.982;2023-03-01T00:24:28;54.10;;;19.20;;
77012;SDS011;67260;53.130;17.982;2023-03-01T00:26:54;52.10;;;19.10;;
77012;SDS011;67260;53.130;17.982;2023-03-01T00:29:23;57.50;;;20.10;;
77012;SDS011;67260;53.130;17.982;2023-03-01T00:31:50;60.20;;;19.70;;
77012;SDS011;67260;53.130;17.982;2023-03-01T00:36:44;58.90;;;18.40;;
77012;SDS011;67260;53.130;17.982;2023-03-01T00:39:12;64.50;;;21.20;;
77012;SDS011;67260;53.130;17.982;2023-03-01T00:41:41;61.50;;;20.90;;
77012;SDS011;67260;53.130;17.982;2023-03-01T00:44:08;56.50;;;18.30;;
77012;SDS011;67260;53.130;17.982;2023-03-01T00:46:35;37.90;;;14.90;;
77012;SDS011;67260;53.130;17.982;2023-03-01T00:49:02;53.10;;;19.20;;
77012;SDS011;67260;53.130;17.982;2023-03-01T00:51:31;54.30;;;19.60;;
77012;SDS011;67260;53.130;17.982;2023-03-01T00:53:59;57.20;;;20.70;;
77012;SDS011;67260;53.130;17.982;2023-03-01T00:56:27;59.80;;;21.40;;
77012;SDS011;67260;53.130;17.982;2023-03-01T00:58:55;54.10;;;21.10;;
77012;SDS011;67260;53.130;17.982;2023-03-01T01:01:24;55.50;;;21.10;;
77012;SDS011;67260;53.130;17.982;2023-03-01T01:03:59;55.70;;;19.70;;
77012;SDS011;67260;53.130;17.982;2023-03-01T01:06:38;65.70;;;23.10;;
77012;SDS011;67260;53.130;17.982;2023-03-01T01:09:09;56.20;;;22.00;;
77012;SDS011;67260;53.130;17.982;2023-03-01T01:11:48;52.80;;;18.90;;
77012;SDS011;67260;53.130;17.982;2023-03-01T01:14:17;55.00;;;20.80;;
77012;SDS011;67260;53.130;17.982;2023-03-01T01:16:45;56.60;;;20.80;;
77012;SDS011;67260;53.130;17.982;2023-03-01T01:19:12;58.10;;;21.10;;
77012;SDS011;67260;53.130;17.982;2023-03-01T01:21:39;54.00;;;20.30;;
77012;SDS011;67260;53.130;17.982;2023-03-01T01:24:09;52.30;;;18.70;;
77012;SDS011;67260;53.130;17.982;2023-03-01T01:26:37;54.40;;;19.00;;
77012;SDS011;67260;53.130;17.982;2023-03-01T01:29:05;55.20;;;19.00;;
77012;SDS011;67260;53.130;17.982;2023-03-01T01:31:33;54.20;;;19.50;;
77012;SDS011;67260;53.130;17.982;2023-03-01T01:34:01;56.80;;;20.40;;
77012;SDS011;67260;53.130;17.982;2023-03-01T01:36:30;56.60;;;19.30;;
77012;SDS011;67260;53.130;17.982;2023-03-01T01:38:57;58.50;;;20.80;;
77012;SDS011;67260;53.130;17.982;2023-03-01T01:41:24;64.90;;;21.90;;
77012;SDS011;67260;53.130;17.982;2023-03-01T01:54:54;46.30;;;16.60;;
77012;SDS011;67260;53.130;17.982;2023-03-01T01:57:27;37.70;;;14.90;;
77012;SDS011;67260;53.130;17.982;2023-03-01T02:00:00;47.60;;;17.90;;
77012;SDS011;67260;53.130;17.982;2023-03-01T02:02:40;46.40;;;17.40;;
77012;SDS011;67260;53.130;17.982;2023-03-01T02:05:15;57.60;;;21.10;;
77012;SDS011;67260;53.130;17.982;2023-03-01T02:07:49;61.30;;;23.70;;
77012;SDS011;67260;53.130;17.982;2023-03-01T02:10:22;59.50;;;20.50;;
77012;SDS011;67260;53.130;17.982;2023-03-01T02:12:50;57.20;;;21.00;;
77012;SDS011;67260;53.130;17.982;2023-03-01T02:15:18;65.60;;;21.00;;
77012;SDS011;67260;53.130;17.982;2023-03-01T02:17:45;49.00;;;17.80;;
77012;SDS011;67260;53.130;17.982;2023-03-01T02:23:30;50.60;;;18.50;;
77012;SDS011;67260;53.130;17.982;2023-03-01T02:26:05;44.00;;;16.90;;
77012;SDS011;67260;53.130;17.982;2023-03-01T02:28:42;50.00;;;17.50;;
77012;SDS011;67260;53.130;17.982;2023-03-01T02:31:11;52.20;;;18.80;;
77012;SDS011;67260;53.130;17.982;2023-03-01T02:34:01;54.90;;;18.60;;
77012;SDS011;67260;53.130;17.982;2023-03-01T02:36:37;49.50;;;18.40;;
77012;SDS011;67260;53.130;17.982;2023-03-01T02:39:07;48.10;;;17.20;;
77012;SDS011;67260;53.130;17.982;2023-03-01T02:41:42;51.00;;;17.90;;
77012;SDS011;67260;53.130;17.982;2023-03-01T02:44:12;49.40;;;17.30;;
77012;SDS011;67260;53.130;17.982;2023-03-01T02:49:28;51.50;;;18.00;;
77012;SDS011;67260;53.130;17.982;2023-03-01T02:55:06;42.40;;;17.10;;
77012;SDS011;67260;53.130;17.982;2023-03-01T02:57:35;33.80;;;13.80;;
77012;SDS011;67260;53.130;17.982;2023-03-01T03:00:08;44.30;;;17.40;;
77012;SDS011;67260;53.130;17.982;2023-03-01T03:02:46;50.80;;;19.30;;
77012;SDS011;67260;53.130;17.982;2023-03-01T03:05:18;45.00;;;17.40;;
77012;SDS011;67260;53.130;17.982;2023-03-01T03:07:52;39.20;;;15.00;;
77012;SDS011;67260;53.130;17.982;2023-03-01T03:10:27;40.70;;;15.00;;
77012;SDS011;67260;53.130;17.982;2023-03-01T03:13:03;37.20;;;16.20;;
77012;SDS011;67260;53.130;17.982;2023-03-01T03:15:40;39.20;;;14.30;;
77012;SDS011;67260;53.130;17.982;2023-03-01T03:18:09;35.90;;;13.70;;
77012;SDS011;67260;53.130;17.982;2023-03-01T03:20:39;43.10;;;14.80;;
77012;SDS011;67260;53.130;17.982;2023-03-01T03:23:07;39.70;;;15.20;;
77012;SDS011;67260;53.130;17.982;2023-03-01T03:25:34;36.70;;;14.40;;
77012;SDS011;67260;53.130;17.982;2023-03-01T03:28:05;42.30;;;15.10;;
77012;SDS011;67260;53.130;17.982;2023-03-01T03:30:37;40.60;;;15.20;;
77012;SDS011;67260;53.130;17.982;2023-03-01T03:33:06;44.10;;;16.20;;
77012;SDS011;67260;53.130;17.982;2023-03-01T03:35:54;45.10;;;16.60;;
77012;SDS011;67260;53.130;17.982;2023-03-01T03:38:20;41.10;;;16.10;;
77012;SDS011;67260;53.130;17.982;2023-03-01T03:40:49;46.00;;;16.80;;
77012;SDS011;67260;53.130;17.982;2023-03-01T03:43:20;40.50;;;15.40;;
77012;SDS011;67260;53.130;17.982;2023-03-01T03:45:48;45.50;;;17.00;;
77012;SDS011;67260;53.130;17.982;2023-03-01T03:48:17;28.50;;;11.60;;
77012;SDS011;67260;53.130;17.982;2023-03-01T03:50:50;33.70;;;13.40;;
77012;SDS011;67260;53.130;17.982;2023-03-01T03:53:18;31.40;;;12.00;;
77012;SDS011;67260;53.130;17.982;2023-03-01T03:55:45;31.70;;;13.10;;
77012;SDS011;67260;53.130;17.982;2023-03-01T03:58:15;32.10;;;12.00;;
77012;SDS011;67260;53.130;17.982;2023-03-01T04:00:46;23.10;;;9.40;;
77012;SDS011;67260;53.130;17.982;2023-03-01T04:03:14;28.20;;;10.70;;
77012;SDS011;67260;53.130;17.982;2023-03-01T04:05:42;25.70;;;10.30;;
77012;SDS011;67260;53.130;17.982;2023-03-01T04:08:09;29.20;;;11.70;;
77012;SDS011;67260;53.130;17.982;2023-03-01T04:10:37;38.70;;;13.70;;
77012;SDS011;67260;53.130;17.982;2023-03-01T04:13:07;37.40;;;13.10;;
77012;SDS011;67260;53.130;17.982;2023-03-01T04:15:38;34.10;;;12.20;;
77012;SDS011;67260;53.130;17.982;2023-03-01T04:18:06;35.10;;;13.50;;
77012;SDS011;67260;53.130;17.982;2023-03-01T04:20:34;40.50;;;13.20;;
77012;SDS011;67260;53.130;17.982;2023-03-01T04:23:03;37.60;;;14.40;;
77012;SDS011;67260;53.130;17.982;2023-03-01T04:25:40;35.50;;;12.70;;
77012;SDS011;67260;53.130;17.982;2023-03-01T04:28:11;37.90;;;13.50;;
77012;SDS011;67260;53.130;17.982;2023-03-01T04:30:38;34.10;;;13.60;;
77012;SDS011;67260;53.130;17.982;2023-03-01T04:33:06;35.80;;;13.30;;
77012;SDS011;67260;53.130;17.982;2023-03-01T04:35:34;39.60;;;14.50;;
77012;SDS011;67260;53.130;17.982;2023-03-01T04:38:03;41.10;;;14.50;;
77012;SDS011;67260;53.130;17.982;2023-03-01T04:40:31;44.10;;;16.00;;
77012;SDS011;67260;53.130;17.982;2023-03-01T04:42:58;34.00;;;12.40;;
77012;SDS011;67260;53.130;17.982;2023-03-01T04:45:25;39.70;;;14.80;;
77012;SDS011;67260;53.130;17.982;2023-03-01T04:47:54;30.90;;;12.90;;
77012;SDS011;67260;53.130;17.982;2023-03-01T04:50:24;34.10;;;14.20;;
77012;SDS011;67260;53.130;17.982;2023-03-01T04:52:52;34.30;;;14.20;;
77012;SDS011;67260;53.130;17.982;2023-03-01T04:55:19;41.00;;;14.70;;
77012;SDS011;67260;53.130;17.982;2023-03-01T04:57:46;41.60;;;16.20;;
77012;SDS011;67260;53.130;17.982;2023-03-01T05:00:13;30.10;;;12.70;;
77012;SDS011;67260;53.130;17.982;2023-03-01T05:05:30;45.10;;;17.00;;
77012;SDS011;67260;53.130;17.982;2023-03-01T05:07:59;41.30;;;15.90;;
77012;SDS011;67260;53.130;17.982;2023-03-01T05:10:29;46.00;;;16.70;;
77012;SDS011;67260;53.130;17.982;2023-03-01T05:12:58;38.80;;;14.10;;
77012;SDS011;67260;53.130;17.982;2023-03-01T05:15:26;38.90;;;14.90;;
77012;SDS011;67260;53.130;17.982;2023-03-01T05:17:55;37.90;;;14.80;;
77012;SDS011;67260;53.130;17.982;2023-03-01T05:20:29;36.40;;;15.40;;
77012;SDS011;67260;53.130;17.982;2023-03-01T05:22:57;41.90;;;15.00;;
77012;SDS011;67260;53.130;17.982;2023-03-01T05:25:26;39.50;;;15.50;;
77012;SDS011;67260;53.130;17.982;2023-03-01T05:27:53;39.00;;;15.20;;
77012;SDS011;67260;53.130;17.982;2023-03-01T05:30:19;42.90;;;16.40;;
77012;SDS011;67260;53.130;17.982;2023-03-01T05:32:48;47.70;;;17.00;;
77012;SDS011;67260;53.130;17.982;2023-03-01T05:35:22;41.60;;;15.70;;
77012;SDS011;67260;53.130;17.982;2023-03-01T05:37:49;45.40;;;16.70;;
77012;SDS011;67260;53.130;17.982;2023-03-01T05:40:20;39.30;;;14.40;;
77012;SDS011;67260;53.130;17.982;2023-03-01T05:42:49;38.20;;;13.90;;
77012;SDS011;67260;53.130;17.982;2023-03-01T05:45:24;36.90;;;14.60;;
77012;SDS011;67260;53.130;17.982;2023-03-01T05:47:52;39.00;;;16.10;;
77012;SDS011;67260;53.130;17.982;2023-03-01T05:50:32;45.00;;;17.00;;
77012;SDS011;67260;53.130;17.982;2023-03-01T05:53:03;50.00;;;20.20;;
77012;SDS011;67260;53.130;17.982;2023-03-01T05:55:34;64.70;;;25.50;;
77012;SDS011;67260;53.130;17.982;2023-03-01T05:58:03;53.40;;;19.50;;
77012;SDS011;67260;53.130;17.982;2023-03-01T06:00:32;47.40;;;17.30;;
77012;SDS011;67260;53.130;17.982;2023-03-01T06:03:00;54.30;;;19.30;;
77012;SDS011;67260;53.130;17.982;2023-03-01T06:05:27;50.70;;;17.80;;
77012;SDS011;67260;53.130;17.982;2023-03-01T06:07:54;49.50;;;19.00;;
77012;SDS011;67260;53.130;17.982;2023-03-01T06:10:21;53.30;;;19.40;;
77012;SDS011;67260;53.130;17.982;2023-03-01T06:12:48;57.70;;;18.20;;
77012;SDS011;67260;53.130;17.982;2023-03-01T06:15:15;52.00;;;19.30;;
77012;SDS011;67260;53.130;17.982;2023-03-01T06:17:43;57.30;;;20.40;;
77012;SDS011;67260;53.130;17.982;2023-03-01T06:22:44;62.80;;;20.70;;
77012;SDS011;67260;53.130;17.982;2023-03-01T06:25:13;52.80;;;18.00;;
77012;SDS011;67260;53.130;17.982;2023-03-01T06:27:42;44.80;;;16.90;;
77012;SDS011;67260;53.130;17.982;2023-03-01T06:30:10;52.50;;;19.40;;
77012;SDS011;67260;53.130;17.982;2023-03-01T06:32:40;51.90;;;18.30;;
77012;SDS011;67260;53.130;17.982;2023-03-01T06:35:12;39.40;;;16.10;;
77012;SDS011;67260;53.130;17.982;2023-03-01T06:37:40;48.60;;;19.00;;
77012;SDS011;67260;53.130;17.982;2023-03-01T06:40:08;48.00;;;17.30;;
77012;SDS011;67260;53.130;17.982;2023-03-01T06:42:38;53.30;;;20.40;;
77012;SDS011;67260;53.130;17.982;2023-03-01T06:45:06;47.70;;;18.70;;
77012;SDS011;67260;53.130;17.982;2023-03-01T06:47:34;40.60;;;15.50;;
77012;SDS011;67260;53.130;17.982;2023-03-01T06:52:28;41.20;;;16.20;;
77012;SDS011;67260;53.130;17.982;2023-03-01T06:54:55;50.10;;;18.50;;
77012;SDS011;67260;53.130;17.982;2023-03-01T06:57:22;39.30;;;15.80;;
77012;SDS011;67260;53.130;17.982;2023-03-01T07:02:15;47.10;;;18.50;;
77012;SDS011;67260;53.130;17.982;2023-03-01T07:04:42;47.30;;;17.20;;
77012;SDS011;67260;53.130;17.982;2023-03-01T07:09:36;37.90;;;14.90;;
77012;SDS011;67260;53.130;17.982;2023-03-01T07:12:02;40.40;;;15.80;;
77012;SDS011;67260;53.130;17.982;2023-03-01T07:14:29;36.70;;;16.40;;
77012;SDS011;67260;53.130;17.982;2023-03-01T07:19:23;51.20;;;19.10;;
77012;SDS011;67260;53.130;17.982;2023-03-01T07:21:50;41.50;;;17.20;;
77012;SDS011;67260;53.130;17.982;2023-03-01T07:24:16;44.80;;;18.50;;
77012;SDS011;67260;53.130;17.982;2023-03-01T07:26:43;41.10;;;15.30;;
77012;SDS011;67260;53.130;17.982;2023-03-01T07:29:10;44.50;;;16.60;;
77012;SDS011;67260;53.130;17.982;2023-03-01T07:31:37;32.30;;;12.60;;
77012;SDS011;67260;53.130;17.982;2023-03-01T07:34:03;36.80;;;14.30;;
77012;SDS011;67260;53.130;17.982;2023-03-01T07:36:30;39.30;;;16.80;;
77012;SDS011;67260;53.130;17.982;2023-03-01T07:38:57;40.10;;;16.10;;
77012;SDS011;67260;53.130;17.982;2023-03-01T07:41:24;37.50;;;14.70;;
77012;SDS011;67260;53.130;17.982;2023-03-01T07:43:51;28.90;;;11.10;;
77012;SDS011;67260;53.130;17.982;2023-03-01T07:46:18;22.50;;;8.00;;
77012;SDS011;67260;53.130;17.982;2023-03-01T07:48:45;44.30;;;15.20;;
77012;SDS011;67260;53.130;17.982;2023-03-01T07:51:12;20.40;;;7.40;;
77012;SDS011;67260;53.130;17.982;2023-03-01T07:53:39;57.10;;;18.90;;
77012;SDS011;67260;53.130;17.982;2023-03-01T07:56:07;43.20;;;15.30;;
77012;SDS011;67260;53.130;17.982;2023-03-01T07:58:36;42.00;;;16.30;;
77012;SDS011;67260;53.130;17.982;2023-03-01T08:01:05;22.60;;;9.30;;
77012;SDS011;67260;53.130;17.982;2023-03-01T08:03:35;32.40;;;12.70;;
77012;SDS011;67260;53.130;17.982;2023-03-01T08:06:03;41.40;;;15.60;;
77012;SDS011;67260;53.130;17.982;2023-03-01T08:08:31;30.70;;;12.70;;
77012;SDS011;67260;53.130;17.982;2023-03-01T08:10:59;27.10;;;9.60;;
77012;SDS011;67260;53.130;17.982;2023-03-01T08:13:28;20.50;;;8.50;;
77012;SDS011;67260;53.130;17.982;2023-03-01T08:16:00;32.40;;;12.70;;
77012;SDS011;67260;53.130;17.982;2023-03-01T08:18:31;25.30;;;10.50;;
77012;SDS011;67260;53.130;17.982;2023-03-01T08:21:02;20.90;;;8.70;;
77012;SDS011;67260;53.130;17.982;2023-03-01T08:23:39;25.10;;;10.20;;
77012;SDS011;67260;53.130;17.982;2023-03-01T08:26:08;19.80;;;9.00;;
77012;SDS011;67260;53.130;17.982;2023-03-01T08:28:40;17.80;;;7.50;;
77012;SDS011;67260;53.130;17.982;2023-03-01T08:31:17;18.20;;;7.80;;
77012;SDS011;67260;53.130;17.982;2023-03-01T08:33:50;16.80;;;6.80;;
77012;SDS011;67260;53.130;17.982;2023-03-01T08:36:22;23.20;;;8.90;;
77012;SDS011;67260;53.130;17.982;2023-03-01T08:38:49;24.20;;;9.60;;
77012;SDS011;67260;53.130;17.982;2023-03-01T08:41:16;20.10;;;7.70;;
77012;SDS011;67260;53.130;17.982;2023-03-01T08:43:44;34.10;;;14.80;;
77012;SDS011;67260;53.130;17.982;2023-03-01T08:46:11;17.10;;;6.70;;
77012;SDS011;67260;53.130;17.982;2023-03-01T08:48:38;27.80;;;9.90;;
77012;SDS011;67260;53.130;17.982;2023-03-01T08:51:15;24.80;;;9.20;;
77012;SDS011;67260;53.130;17.982;2023-03-01T08:53:44;21.50;;;10.00;;
77012;SDS011;67260;53.130;17.982;2023-03-01T08:56:11;27.40;;;12.00;;
77012;SDS011;67260;53.130;17.982;2023-03-01T08:58:38;21.80;;;10.00;;
77012;SDS011;67260;53.130;17.982;2023-03-01T09:01:06;23.30;;;10.20;;
77012;SDS011;67260;53.130;17.982;2023-03-01T09:03:34;21.40;;;9.20;;
77012;SDS011;67260;53.130;17.982;2023-03-01T09:06:02;27.10;;;11.90;;
77012;SDS011;67260;53.130;17.982;2023-03-01T09:08:30;22.20;;;9.40;;
77012;SDS011;67260;53.130;17.982;2023-03-01T09:11:03;22.40;;;9.20;;
77012;SDS011;67260;53.130;17.982;2023-03-01T09:13:31;25.40;;;10.80;;
77012;SDS011;67260;53.130;17.982;2023-03-01T09:16:00;31.30;;;12.80;;
77012;SDS011;67260;53.130;17.982;2023-03-01T09:18:28;27.00;;;11.70;;
77012;SDS011;67260;53.130;17.982;2023-03-01T09:21:05;26.90;;;11.40;;
77012;SDS011;67260;53.130;17.982;2023-03-01T09:23:40;23.00;;;9.90;;
77012;SDS011;67260;53.130;17.982;2023-03-01T09:26:12;23.10;;;9.20;;
77012;SDS011;67260;53.130;17.982;2023-03-01T09:28:42;15.80;;;6.10;;
77012;SDS011;67260;53.130;17.982;2023-03-01T09:31:11;19.10;;;8.00;;
77012;SDS011;67260;53.130;17.982;2023-03-01T09:33:39;26.70;;;10.50;;
77012;SDS011;67260;53.130;17.982;2023-03-01T09:36:10;28.60;;;11.50;;
77012;SDS011;67260;53.130;17.982;2023-03-01T09:38:38;22.60;;;10.40;;
77012;SDS011;67260;53.130;17.982;2023-03-01T09:46:49;21.10;;;9.50;;
77012;SDS011;67260;53.130;17.982;2023-03-01T09:49:21;18.70;;;7.90;;
77012;SDS011;67260;53.130;17.982;2023-03-01T09:54:37;21.30;;;9.30;;
77012;SDS011;67260;53.130;17.982;2023-03-01T09:57:06;19.00;;;8.00;;
77012;SDS011;67260;53.130;17.982;2023-03-01T10:11:36;13.20;;;6.00;;
77012;SDS011;67260;53.130;17.982;2023-03-01T10:14:05;19.90;;;8.70;;
77012;SDS011;67260;53.130;17.982;2023-03-01T10:16:48;21.40;;;9.40;;
77012;SDS011;67260;53.130;17.982;2023-03-01T10:19:23;21.90;;;10.50;;
77012;SDS011;67260;53.130;17.982;2023-03-01T10:22:04;22.80;;;9.00;;
77012;SDS011;67260;53.130;17.982;2023-03-01T10:24:38;20.40;;;9.10;;
77012;SDS011;67260;53.130;17.982;2023-03-01T10:27:07;22.90;;;10.10;;
77012;SDS011;67260;53.130;17.982;2023-03-01T10:29:46;18.10;;;9.00;;
77012;SDS011;67260;53.130;17.982;2023-03-01T10:32:22;16.30;;;7.70;;
77012;SDS011;67260;53.130;17.982;2023-03-01T10:37:18;12.50;;;5.50;;
77012;SDS011;67260;53.130;17.982;2023-03-01T10:39:55;14.10;;;6.40;;
77012;SDS011;67260;53.130;17.982;2023-03-01T10:42:29;17.10;;;7.30;;
77012;SDS011;67260;53.130;17.982;2023-03-01T10:45:00;22.70;;;9.50;;
77012;SDS011;67260;53.130;17.982;2023-03-01T10:47:43;22.70;;;10.60;;
77012;SDS011;67260;53.130;17.982;2023-03-01T10:50:20;22.60;;;9.00;;
77012;SDS011;67260;53.130;17.982;2023-03-01T10:52:59;16.60;;;7.80;;
77012;SDS011;67260;53.130;17.982;2023-03-01T11:00:48;13.70;;;5.90;;
77012;SDS011;67260;53.130;17.982;2023-03-01T11:03:33;16.60;;;7.50;;
77012;SDS011;67260;53.130;17.982;2023-03-01T11:06:19;14.30;;;7.00;;
77012;SDS011;67260;53.130;17.982;2023-03-01T11:08:48;15.70;;;7.70;;
77012;SDS011;67260;53.130;17.982;2023-03-01T11:11:18;16.00;;;8.10;;
77012;SDS011;67260;53.130;17.982;2023-03-01T11:21:39;19.90;;;9.30;;
77012;SDS011;67260;53.130;17.982;2023-03-01T11:24:09;17.20;;;7.90;;
77012;SDS011;67260;53.130;17.982;2023-03-01T11:26:39;10.60;;;5.00;;
77012;SDS011;67260;53.130;17.982;2023-03-01T11:29:43;19.50;;;9.30;;
77012;SDS011;67260;53.130;17.982;2023-03-01T11:32:05;13.90;;;7.40;;
77012;SDS011;67260;53.130;17.982;2023-03-01T11:37:13;16.10;;;7.70;;
77012;SDS011;67260;53.130;17.982;2023-03-01T11:40:13;16.20;;;7.20;;
77012;SDS011;67260;53.130;17.982;2023-03-01T11:45:39;10.70;;;3.90;;
77012;SDS011;67260;53.130;17.982;2023-03-01T11:51:16;16.00;;;6.80;;
77012;SDS011;67260;53.130;17.982;2023-03-01T12:05:21;11.50;;;5.60;;
77012;SDS011;67260;53.130;17.982;2023-03-01T12:08:26;13.40;;;6.00;;
77012;SDS011;67260;53.130;17.982;2023-03-01T12:11:03;10.50;;;4.80;;
77012;SDS011;67260;53.130;17.982;2023-03-01T12:16:24;12.70;;;6.30;;
77012;SDS011;67260;53.130;17.982;2023-03-01T12:20:08;8.90;;;4.20;;
77012;SDS011;67260;53.130;17.982;2023-03-01T12:24:44;13.90;;;5.60;;
77012;SDS011;67260;53.130;17.982;2023-03-01T12:35:54;13.10;;;5.30;;
77012;SDS011;67260;53.130;17.982;2023-03-01T12:38:41;13.50;;;7.10;;
77012;SDS011;67260;53.130;17.982;2023-03-01T12:50:00;13.20;;;6.50;;
77012;SDS011;67260;53.130;17.982;2023-03-01T12:55:34;14.60;;;6.40;;
77012;SDS011;67260;53.130;17.982;2023-03-01T13:00:32;14.30;;;6.70;;
77012;SDS011;67260;53.130;17.982;2023-03-01T13:06:18;13.90;;;6.70;;
77012;SDS011;67260;53.130;17.982;2023-03-01T13:11:57;14.80;;;5.70;;
77012;SDS011;67260;53.130;17.982;2023-03-01T13:14:34;12.50;;;6.00;;
77012;SDS011;67260;53.130;17.982;2023-03-01T13:17:02;13.40;;;5.70;;
77012;SDS011;67260;53.130;17.982;2023-03-01T13:21:56;14.70;;;5.90;;
77012;SDS011;67260;53.130;17.982;2023-03-01T13:24:27;16.00;;;5.90;;
77012;SDS011;67260;53.130;17.982;2023-03-01T13:29:45;10.20;;;5.00;;
77012;SDS011;67260;53.130;17.982;2023-03-01T13:32:20;11.20;;;5.60;;
77012;SDS011;67260;53.130;17.982;2023-03-01T13:35:45;6.00;;;2.80;;
77012;SDS011;67260;53.130;17.982;2023-03-01T13:37:46;11.20;;;5.00;;
77012;SDS011;67260;53.130;17.982;2023-03-01T13:42:48;13.20;;;6.00;;
77012;SDS011;67260;53.130;17.982;2023-03-01T13:45:20;12.50;;;5.50;;
77012;SDS011;67260;53.130;17.982;2023-03-01T13:47:55;13.30;;;5.80;;
77012;SDS011;67260;53.130;17.982;2023-03-01T13:50:25;15.80;;;6.60;;
77012;SDS011;67260;53.130;17.982;2023-03-01T13:53:04;12.80;;;6.00;;
77012;SDS011;67260;53.130;17.982;2023-03-01T13:55:43;15.90;;;7.00;;
77012;SDS011;67260;53.130;17.982;2023-03-01T14:00:47;13.40;;;5.80;;
77012;SDS011;67260;53.130;17.982;2023-03-01T14:03:18;14.70;;;5.90;;
77012;SDS011;67260;53.130;17.982;2023-03-01T14:06:07;13.10;;;6.00;;
77012;SDS011;67260;53.130;17.982;2023-03-01T14:08:35;13.00;;;5.80;;
77012;SDS011;67260;53.130;17.982;2023-03-01T14:16:40;13.60;;;6.70;;
77012;SDS011;67260;53.130;17.982;2023-03-01T14:21:45;14.40;;;6.70;;
77012;SDS011;67260;53.130;17.982;2023-03-01T14:24:22;14.00;;;6.80;;
77012;SDS011;67260;53.130;17.982;2023-03-01T14:26:49;14.90;;;7.10;;
77012;SDS011;67260;53.130;17.982;2023-03-01T14:29:27;13.90;;;6.70;;
77012;SDS011;67260;53.130;17.982;2023-03-01T14:32:36;14.60;;;7.00;;
77012;SDS011;67260;53.130;17.982;2023-03-01T14:34:57;14.40;;;6.00;;
77012;SDS011;67260;53.130;17.982;2023-03-01T14:39:58;10.70;;;5.40;;
77012;SDS011;67260;53.130;17.982;2023-03-01T14:42:27;13.90;;;7.10;;
77012;SDS011;67260;53.130;17.982;2023-03-01T14:44:57;12.30;;;6.40;;
77012;SDS011;67260;53.130;17.982;2023-03-01T14:47:28;12.50;;;6.40;;
77012;SDS011;67260;53.130;17.982;2023-03-01T14:50:01;13.10;;;6.30;;
77012;SDS011;67260;53.130;17.982;2023-03-01T14:52:37;11.50;;;6.00;;
77012;SDS011;67260;53.130;17.982;2023-03-01T14:55:21;14.60;;;6.50;;
77012;SDS011;67260;53.130;17.982;2023-03-01T14:57:57;12.40;;;6.00;;
77012;SDS011;67260;53.130;17.982;2023-03-01T15:00:26;13.00;;;6.30;;
77012;SDS011;67260;53.130;17.982;2023-03-01T15:02:56;12.40;;;5.40;;
77012;SDS011;67260;53.130;17.982;2023-03-01T15:05:28;13.00;;;6.10;;
77012;SDS011;67260;53.130;17.982;2023-03-01T15:07:57;13.40;;;6.30;;
77012;SDS011;67260;53.130;17.982;2023-03-01T15:10:27;12.40;;;6.00;;
77012;SDS011;67260;53.130;17.982;2023-03-01T15:13:09;13.10;;;5.50;;
77012;SDS011;67260;53.130;17.982;2023-03-01T15:16:15;13.00;;;6.60;;
77012;SDS011;67260;53.130;17.982;2023-03-01T15:18:46;13.50;;;6.60;;
77012;SDS011;67260;53.130;17.982;2023-03-01T15:23:48;14.40;;;6.60;;
77012;SDS011;67260;53.130;17.982;2023-03-01T15:26:39;12.00;;;5.50;;
77012;SDS011;67260;53.130;17.982;2023-03-01T15:29:21;11.00;;;5.40;;
77012;SDS011;67260;53.130;17.982;2023-03-01T15:31:54;13.20;;;6.00;;
77012;SDS011;67260;53.130;17.982;2023-03-01T15:36:59;14.30;;;6.60;;
77012;SDS011;67260;53.130;17.982;2023-03-01T15:39:32;14.60;;;6.30;;
77012;SDS011;67260;53.130;17.982;2023-03-01T15:47:47;15.90;;;7.00;;
77012;SDS011;67260;53.130;17.982;2023-03-01T15:53:04;15.60;;;7.40;;
77012;SDS011;67260;53.130;17.982;2023-03-01T15:55:34;23.40;;;10.30;;
77012;SDS011;67260;53.130;17.982;2023-03-01T15:58:05;19.90;;;9.40;;
77012;SDS011;67260;53.130;17.982;2023-03-01T16:00:36;21.20;;;9.50;;
77012;SDS011;67260;53.130;17.982;2023-03-01T16:03:04;23.10;;;10.90;;
77012;SDS011;67260;53.130;17.982;2023-03-01T16:05:32;26.00;;;10.90;;
77012;SDS011;67260;53.130;17.982;2023-03-01T16:08:03;22.40;;;10.80;;
77012;SDS011;67260;53.130;17.982;2023-03-01T16:10:32;29.30;;;12.50;;
77012;SDS011;67260;53.130;17.982;2023-03-01T16:13:00;27.30;;;12.20;;
77012;SDS011;67260;53.130;17.982;2023-03-01T16:15:28;32.80;;;13.20;;
77012;SDS011;67260;53.130;17.982;2023-03-01T16:17:56;30.10;;;13.80;;
77012;SDS011;67260;53.130;17.982;2023-03-01T16:20:24;28.30;;;13.10;;
77012;SDS011;67260;53.130;17.982;2023-03-01T16:22:51;26.30;;;12.10;;
77012;SDS011;67260;53.130;17.982;2023-03-01T16:25:19;33.10;;;15.00;;
77012;SDS011;67260;53.130;17.982;2023-03-01T16:27:47;32.40;;;15.30;;
77012;SDS011;67260;53.130;17.982;2023-03-01T16:30:17;30.20;;;12.80;;
77012;SDS011;67260;53.130;17.982;2023-03-01T16:32:46;27.60;;;12.70;;
77012;SDS011;67260;53.130;17.982;2023-03-01T16:35:16;37.00;;;14.40;;
77012;SDS011;67260;53.130;17.982;2023-03-01T16:37:45;31.30;;;14.10;;
77012;SDS011;67260;53.130;17.982;2023-03-01T16:40:16;33.80;;;15.00;;
77012;SDS011;67260;53.130;17.982;2023-03-01T16:42:47;36.90;;;16.40;;
77012;SDS011;67260;53.130;17.982;2023-03-01T16:45:14;35.10;;;14.70;;
77012;SDS011;67260;53.130;17.982;2023-03-01T16:47:42;40.50;;;16.30;;
77012;SDS011;67260;53.130;17.982;2023-03-01T16:50:09;41.90;;;19.90;;
77012;SDS011;67260;53.130;17.982;2023-03-01T16:52:36;48.70;;;21.50;;
77012;SDS011;67260;53.130;17.982;2023-03-01T16:55:04;44.40;;;20.20;;
77012;SDS011;67260;53.130;17.982;2023-03-01T16:57:36;49.70;;;20.90;;
77012;SDS011;67260;53.130;17.982;2023-03-01T17:00:04;41.10;;;18.70;;
77012;SDS011;67260;53.130;17.982;2023-03-01T17:02:34;52.70;;;19.70;;
77012;SDS011;67260;53.130;17.982;2023-03-01T17:05:11;48.30;;;20.10;;
77012;SDS011;67260;53.130;17.982;2023-03-01T17:07:41;55.90;;;22.60;;
77012;SDS011;67260;53.130;17.982;2023-03-01T17:10:09;72.70;;;30.50;;
77012;SDS011;67260;53.130;17.982;2023-03-01T17:12:38;95.90;;;35.90;;
77012;SDS011;67260;53.130;17.982;2023-03-01T17:15:06;71.90;;;27.80;;
77012;SDS011;67260;53.130;17.982;2023-03-01T17:17:33;74.20;;;28.40;;
77012;SDS011;67260;53.130;17.982;2023-03-01T17:20:01;76.00;;;29.40;;
77012;SDS011;67260;53.130;17.982;2023-03-01T17:22:28;65.40;;;27.20;;